Time;durP1;ratioP1;P1;durP2;ratioP2;P2;SDS_P1;SDS_P2;PMS_P1;PMS_P2;Temp;Humidity;BMP_temperature;BMP_pressure;BME280_temperature;BME280_humidity;BME280_pressure;Samples;Min_cycle;Max_cycle;Signal;HPM_P1;HPM_P2
2024/01/01 00:00:51;;;;;;;12.77;9.32;;;12.60;63.20;14.00;99494.00;;;;5031870;28;20200;-76
2024/01/01 00:03:19;;;;;;;12.18;9.25;;;12.60;63.10;14.00;99509.00;;;;5031653;28;20204;-76
2024/01/01 00:05:46;;;;;;;13.77;11.20;;;12.60;63.00;14.00;99492.00;;;;5035999;28;20580;-76
2024/01/01 00:08:13;;;;;;;15.82;11.85;;;12.60;62.90;14.00;99496.00;;;;5055599;28;20716;-76
2024/01/01 00:10:40;;;;;;;16.50;11.25;;;12.60;62.90;14.00;99485.00;;;;5055726;28;20207;-75
2024/01/01 00:13:07;;;;;;;14.25;10.30;;;12.50;62.80;13.90;99498.00;;;;5055643;28;20563;-75
2024/01/01 00:15:34;;;;;;;14.45;8.77;;;12.50;62.70;13.90;99500.00;;;;5041034;28;20231;-75
2024/01/01 00:18:02;;;;;;;12.07;8.70;;;12.50;62.80;13.90;99481.00;;;;5035546;28;20206;-75
2024/01/01 00:20:29;;;;;;;9.65;7.35;;;12.40;62.80;13.80;99487.00;;;;5035280;28;20211;-75
2024/01/01 00:22:56;;;;;;;17.30;13.05;;;12.40;62.80;13.80;99482.00;;;;5038926;28;20194;-75
2024/01/01 00:25:23;;;;;;;13.93;10.10;;;12.40;62.80;13.80;99486.00;;;;5035683;28;20247;-75
2024/01/01 00:27:50;;;;;;;14.55;8.82;;;12.40;62.90;13.80;99493.00;;;;5034832;28;20192;-75
2024/01/01 00:30:17;;;;;;;13.07;9.07;;;12.30;63.00;13.70;99495.00;;;;5044777;28;20203;-76
2024/01/01 00:32:44;;;;;;;11.23;8.50;;;12.30;62.90;13.70;99486.00;;;;5055452;28;20650;-75
2024/01/01 00:35:13;;;;;;;11.85;8.18;;;12.30;63.00;13.70;99485.00;;;;5043746;28;20327;-75
2024/01/01 00:37:40;;;;;;;11.77;6.65;;;12.20;63.00;13.60;99486.00;;;;5035278;28;20200;-75
2024/01/01 00:40:09;;;;;;;12.73;6.20;;;12.20;63.00;13.60;99481.00;;;;5035204;28;20283;-75
2024/01/01 00:42:38;;;;;;;8.20;6.10;;;12.20;63.00;13.60;99482.00;;;;5035100;28;20203;-76
2024/01/01 00:45:06;;;;;;;8.45;5.82;;;12.10;63.00;13.60;99483.00;;;;5034481;28;20196;-75
2024/01/01 00:47:33;;;;;;;10.30;6.00;;;12.10;63.10;13.50;99466.00;;;;5034867;28;20195;-75
2024/01/01 00:50:00;;;;;;;8.25;4.82;;;12.10;63.20;13.50;99485.00;;;;5034982;28;20291;-75
2024/01/01 00:52:28;;;;;;;7.68;3.97;;;12.00;63.20;13.50;99477.00;;;;5031132;28;20574;-75
2024/01/01 00:54:55;;;;;;;5.15;3.38;;;12.00;63.30;13.40;99482.00;;;;5034228;28;20680;-75
2024/01/01 00:57:22;;;;;;;7.68;3.65;;;12.00;63.40;13.50;99482.00;;;;5037872;28;20201;-75
2024/01/01 00:59:49;;;;;;;6.40;3.78;;;12.00;63.50;13.40;99493.00;;;;5034683;28;20195;-76
2024/01/01 01:02:16;;;;;;;6.93;3.90;;;12.00;63.60;13.50;99490.00;;;;5034449;28;20203;-75
2024/01/01 01:04:45;;;;;;;6.45;4.22;;;12.00;63.60;13.40;99492.00;;;;5034439;28;20243;-75
2024/01/01 01:07:12;;;;;;;8.68;4.68;;;12.00;63.70;13.50;99493.00;;;;5034746;28;20196;-76
2024/01/01 01:09:41;;;;;;;6.80;3.97;;;12.00;63.80;13.40;99482.00;;;;5034355;28;20199;-75
2024/01/01 01:12:08;;;;;;;5.25;3.60;;;12.00;63.70;13.50;99487.00;;;;5034633;28;20192;-75
2024/01/01 01:14:35;;;;;;;6.43;3.60;;;12.00;63.80;13.50;99490.00;;;;5034700;28;20215;-75
2024/01/01 01:17:02;;;;;;;5.50;3.20;;;12.00;63.80;13.50;99481.00;;;;5034115;28;20228;-75
2024/01/01 01:19:29;;;;;;;6.15;3.13;;;12.00;63.90;13.50;99504.00;;;;5033292;28;20282;-75
2024/01/01 01:21:56;;;;;;;6.32;2.55;;;12.00;63.80;13.50;99511.00;;;;5034743;28;20202;-75
2024/01/01 01:24:23;;;;;;;4.68;2.30;;;11.90;63.70;13.50;99498.00;;;;5018483;28;20184;-75
2024/01/01 01:26:52;;;;;;;4.70;2.28;;;12.00;63.80;13.50;99504.00;;;;5033623;28;20685;-75
2024/01/01 01:29:19;;;;;;;4.82;2.72;;;12.00;63.70;13.50;99501.00;;;;5034911;28;20200;-75
2024/01/01 01:31:46;;;;;;;3.33;2.45;;;12.00;63.80;13.50;99505.00;;;;5041107;28;20212;-75
2024/01/01 01:34:13;;;;;;;8.00;3.47;;;12.00;64.40;13.50;99491.00;;;;5033819;28;20254;-75
2024/01/01 01:36:40;;;;;;;6.15;2.60;;;12.00;63.60;13.40;99503.00;;;;5034145;28;20235;-75
2024/01/01 01:39:07;;;;;;;5.28;2.63;;;11.90;63.60;13.40;99518.00;;;;5033846;28;20200;-75
2024/01/01 01:41:34;;;;;;;6.55;2.83;;;12.00;63.60;13.40;99508.00;;;;5034455;28;20211;-75
2024/01/01 01:44:02;;;;;;;4.63;2.10;;;11.90;63.50;13.40;99516.00;;;;5034055;28;20212;-74
2024/01/01 01:46:30;;;;;;;4.97;2.28;;;11.90;63.50;13.40;99503.00;;;;5033417;28;20616;-75
2024/01/01 01:48:57;;;;;;;4.05;2.00;;;11.90;63.60;13.40;99511.00;;;;5033700;28;20196;-75
2024/01/01 01:51:26;;;;;;;3.13;1.80;;;11.90;63.70;13.40;99515.00;;;;5014355;28;20232;-75
2024/01/01 01:53:54;;;;;;;4.45;1.83;;;11.90;63.70;13.30;99512.00;;;;5033537;28;20200;-74
2024/01/01 01:56:22;;;;;;;6.18;2.08;;;11.90;63.70;13.40;99522.00;;;;5014280;28;20225;-75
2024/01/01 01:58:49;;;;;;;5.60;1.95;;;11.80;63.70;13.30;99512.00;;;;5019550;28;20193;-75
2024/01/01 02:01:18;;;;;;;2.63;1.40;;;11.80;63.70;13.30;99535.00;;;;5029610;28;20223;-75
2024/01/01 02:03:45;;;;;;;2.95;1.23;;;11.80;63.70;13.30;99526.00;;;;5013969;28;20313;-75
2024/01/01 02:06:12;;;;;;;4.15;1.10;;;11.80;63.70;13.30;99519.00;;;;5033043;28;20211;-75
2024/01/01 02:08:40;;;;;;;4.18;1.10;;;11.80;63.80;13.30;99522.00;;;;5033788;28;20199;-75
2024/01/01 02:11:07;;;;;;;4.22;1.17;;;11.80;63.80;13.30;99532.00;;;;5032574;28;20279;-75
2024/01/01 02:13:34;;;;;;;3.92;1.13;;;11.80;63.90;13.30;99524.00;;;;5033243;28;20209;-75
2024/01/01 02:16:01;;;;;;;3.30;1.40;;;11.80;63.90;13.30;99522.00;;;;5028019;28;20216;-75
2024/01/01 02:18:29;;;;;;;2.80;1.33;;;11.70;63.90;13.20;99519.00;;;;5013516;28;20205;-76
2024/01/01 02:20:56;;;;;;;4.35;1.10;;;11.70;64.00;13.20;99520.00;;;;5030033;28;20184;-77
2024/01/01 02:23:25;;;;;;;6.82;1.40;;;11.70;64.20;13.20;99512.00;;;;5034099;28;20201;-75
2024/01/01 02:25:52;;;;;;;2.92;1.40;;;11.70;64.20;13.20;99507.00;;;;5017146;28;20205;-75
2024/01/01 02:28:20;;;;;;;4.10;1.35;;;11.70;64.30;13.20;99522.00;;;;5030857;28;20557;-76
2024/01/01 02:30:47;;;;;;;2.63;1.02;;;11.60;64.50;13.20;99522.00;;;;5041663;28;20192;-74
2024/01/01 02:33:14;;;;;;;5.47;1.33;;;11.60;64.60;13.10;99526.00;;;;5033191;28;20214;-74
2024/01/01 02:35:41;;;;;;;2.75;1.40;;;11.60;65.40;13.10;99510.00;;;;5031848;28;20231;-75
2024/01/01 02:38:08;;;;;;;2.42;1.17;;;11.60;64.70;13.10;99516.00;;;;5033572;28;20199;-75
2024/01/01 02:40:38;;;;;;;4.68;1.58;;;11.60;64.90;13.10;99518.00;;;;5038130;28;20639;-75
2024/01/01 02:43:05;;;;;;;9.35;1.80;;;11.50;65.10;13.10;99513.00;;;;5032655;28;20673;-75
2024/01/01 02:45:34;;;;;;;5.03;1.77;;;11.50;65.10;13.00;99524.00;;;;5032223;28;20667;-75
2024/01/01 02:48:01;;;;;;;4.70;1.40;;;11.50;65.10;13.10;99516.00;;;;5033104;28;20196;-76
2024/01/01 02:50:29;;;;;;;5.68;1.70;;;11.50;65.20;13.10;99518.00;;;;5032311;28;20188;-76
2024/01/01 02:52:56;;;;;;;4.88;1.90;;;11.50;65.20;13.00;99521.00;;;;5032556;28;20263;-75
2024/01/01 02:55:23;;;;;;;3.97;1.30;;;11.50;65.30;13.00;99529.00;;;;5033767;28;20219;-75
2024/01/01 02:57:51;;;;;;;7.72;1.52;;;11.50;65.40;13.00;99539.00;;;;5037772;28;20749;-75
2024/01/01 03:00:19;;;;;;;3.22;1.63;;;11.50;65.60;13.00;99528.00;;;;5029671;28;20200;-75
2024/01/01 03:02:46;;;;;;;3.63;1.45;;;11.50;65.60;13.00;99534.00;;;;5031953;28;20197;-75
2024/01/01 03:05:13;;;;;;;2.30;0.95;;;11.50;65.60;13.00;99531.00;;;;5032436;28;20196;-74
2024/01/01 03:07:40;;;;;;;4.22;1.73;;;11.50;65.60;13.10;99537.00;;;;5032475;28;20209;-74
2024/01/01 03:10:08;;;;;;;4.60;1.73;;;11.50;65.70;13.10;99537.00;;;;5032280;28;20595;-75
2024/01/01 03:12:35;;;;;;;6.28;2.03;;;11.50;65.90;13.10;99536.00;;;;5035557;28;20207;-75
2024/01/01 03:15:05;;;;;;;4.65;1.80;;;11.50;65.90;13.10;99531.00;;;;5042096;28;20227;-74
2024/01/01 03:17:32;;;;;;;4.93;2.03;;;11.50;65.90;13.10;99545.00;;;;5032702;28;20228;-74
2024/01/01 03:20:00;;;;;;;5.82;1.90;;;11.50;65.90;13.10;99536.00;;;;5032224;28;20291;-74
2024/01/01 03:22:27;;;;;;;5.38;2.55;;;11.50;65.90;13.10;99535.00;;;;5031612;28;20192;-74
2024/01/01 03:24:54;;;;;;;5.25;2.17;;;11.50;66.00;13.10;99531.00;;;;5032019;28;20197;-75
2024/01/01 03:27:21;;;;;;;8.63;2.53;;;11.50;66.10;13.10;99534.00;;;;5032181;28;20674;-74
2024/01/01 03:29:48;;;;;;;7.35;2.28;;;11.50;66.20;13.10;99538.00;;;;5032711;28;20199;-75
2024/01/01 03:32:16;;;;;;;6.43;2.47;;;11.50;66.10;13.10;99546.00;;;;5032097;28;20287;-75
2024/01/01 03:34:44;;;;;;;7.05;2.25;;;11.50;66.10;13.10;99542.00;;;;5031099;28;20234;-74
2024/01/01 03:37:11;;;;;;;6.28;1.60;;;11.50;66.20;13.10;99532.00;;;;5031849;28;20831;-74
2024/01/01 03:39:38;;;;;;;6.82;1.60;;;11.50;66.20;13.10;99529.00;;;;5031578;28;20189;-74
2024/01/01 03:42:05;;;;;;;6.10;1.83;;;11.60;66.30;13.10;99528.00;;;;5031874;28;20204;-74
2024/01/01 03:44:32;;;;;;;4.78;1.55;;;11.60;66.30;13.20;99531.00;;;;5031703;28;20204;-74
2024/01/01 03:46:59;;;;;;;7.70;1.40;;;11.60;66.40;13.10;99531.00;;;;5032574;28;20291;-74
2024/01/01 03:49:28;;;;;;;4.13;1.65;;;11.60;66.40;13.20;99528.00;;;;5031338;28;20279;-75
2024/01/01 03:51:55;;;;;;;4.05;1.73;;;11.60;66.30;13.20;99538.00;;;;5031114;28;20188;-75
2024/01/01 03:54:22;;;;;;;6.93;2.05;;;11.60;66.30;13.20;99523.00;;;;5015718;28;20192;-74
2024/01/01 03:56:49;;;;;;;6.40;1.70;;;11.60;66.30;13.20;99529.00;;;;5031916;28;20227;-74
2024/01/01 03:59:16;;;;;;;3.40;1.25;;;11.60;66.40;13.20;99533.00;;;;5031132;28;20190;-74
2024/01/01 04:01:43;;;;;;;4.70;1.88;;;11.60;66.40;13.20;99535.00;;;;5031722;28;20201;-75
2024/01/01 04:04:10;;;;;;;6.30;1.63;;;11.70;66.50;13.20;99532.00;;;;5031381;28;20668;-74
2024/01/01 04:06:38;;;;;;;5.47;1.70;;;11.70;66.40;13.20;99525.00;;;;5031035;28;20196;-74
2024/01/01 04:09:05;;;;;;;7.28;1.58;;;11.70;66.50;13.20;99537.00;;;;5031088;28;20207;-75
2024/01/01 04:11:32;;;;;;;4.68;1.35;;;11.70;66.40;13.20;99536.00;;;;5031822;28;20200;-74
2024/01/01 04:13:59;;;;;;;5.20;1.60;;;11.70;66.40;13.20;99539.00;;;;5031282;28;20222;-75
2024/01/01 04:16:26;;;;;;;6.72;2.10;;;11.70;66.40;13.20;99536.00;;;;5031055;28;20258;-74
2024/01/01 04:18:53;;;;;;;8.98;1.88;;;11.70;66.40;13.20;99544.00;;;;5031782;28;20200;-75
2024/01/01 04:21:20;;;;;;;5.97;1.30;;;11.70;66.30;13.20;99543.00;;;;5021984;28;20204;-75
2024/01/01 04:23:49;;;;;;;4.18;1.48;;;11.70;66.30;13.20;99553.00;;;;5031688;28;20196;-74
2024/01/01 04:26:16;;;;;;;5.88;2.08;;;11.70;66.30;13.30;99551.00;;;;5031292;28;20661;-75
2024/01/01 04:28:43;;;;;;;6.90;1.08;;;11.70;66.30;13.30;99560.00;;;;5022938;28;20196;-74
2024/01/01 04:31:10;;;;;;;5.53;1.65;;;11.70;67.00;13.30;99570.00;;;;5030508;28;20210;-75
2024/01/01 04:33:37;;;;;;;5.72;1.48;;;11.70;66.30;13.30;99561.00;;;;5030848;28;20209;-75
2024/01/01 04:36:05;;;;;;;5.63;1.45;;;11.80;66.40;13.30;99562.00;;;;5031130;28;20220;-75
2024/01/01 04:38:32;;;;;;;5.28;1.67;;;11.70;66.40;13.30;99566.00;;;;5031934;28;20196;-76
2024/01/01 04:41:00;;;;;;;5.47;1.15;;;11.70;66.40;13.30;99566.00;;;;5031149;28;20203;-74
2024/01/01 04:43:27;;;;;;;4.07;1.00;;;11.80;66.50;13.30;99569.00;;;;5031664;28;20197;-75
2024/01/01 04:45:54;;;;;;;3.67;1.27;;;11.80;66.40;13.30;99572.00;;;;5030884;28;20227;-74
2024/01/01 04:48:22;;;;;;;7.45;1.70;;;11.70;66.40;13.30;99571.00;;;;5031005;28;20196;-75
2024/01/01 04:50:49;;;;;;;6.63;1.13;;;11.70;66.40;13.30;99575.00;;;;5030936;28;20646;-74
2024/01/01 04:53:16;;;;;;;8.20;1.58;;;11.70;66.40;13.30;99576.00;;;;5030910;28;20205;-75
2024/01/01 04:55:43;;;;;;;4.28;1.05;;;11.80;66.50;13.30;99571.00;;;;5041934;28;20201;-75
2024/01/01 04:58:12;;;;;;;4.05;1.10;;;11.80;66.50;13.30;99584.00;;;;5035164;28;20235;-74
2024/01/01 05:00:39;;;;;;;4.35;1.10;;;11.80;66.50;13.30;99586.00;;;;5034569;28;20201;-74
2024/01/01 05:03:06;;;;;;;2.92;1.60;;;11.80;66.50;13.30;99589.00;;;;5034242;28;20196;-74
2024/01/01 05:05:33;;;;;;;3.83;1.00;;;11.70;66.40;13.30;99590.00;;;;5034602;28;20292;-75
2024/01/01 05:08:00;;;;;;;7.18;1.20;;;11.80;66.50;13.30;99595.00;;;;5034321;28;20197;-75
2024/01/01 05:10:27;;;;;;;2.65;0.70;;;11.70;66.50;13.30;99599.00;;;;5033952;28;20193;-75
2024/01/01 05:12:54;;;;;;;4.15;1.20;;;11.70;66.60;13.30;99596.00;;;;5035361;28;20554;-74
2024/01/01 05:15:23;;;;;;;6.97;1.27;;;11.70;66.60;13.30;99593.00;;;;5034088;28;20226;-74
2024/01/01 05:17:50;;;;;;;4.93;1.08;;;11.70;66.60;13.30;99601.00;;;;5033560;28;20521;-74
2024/01/01 05:20:17;;;;;;;4.82;1.20;;;11.70;66.70;13.30;99598.00;;;;5034652;28;20200;-74
2024/01/01 05:22:44;;;;;;;4.38;1.00;;;11.70;66.90;13.30;99599.00;;;;5034444;28;20196;-75
2024/01/01 05:25:12;;;;;;;3.53;0.85;;;11.70;66.90;13.30;99599.00;;;;5034527;28;20288;-75
2024/01/01 05:27:39;;;;;;;6.70;1.50;;;11.70;66.90;13.30;99614.00;;;;5031108;28;20200;-75
2024/01/01 05:30:08;;;;;;;6.80;1.38;;;11.70;66.90;13.30;99622.00;;;;5034842;28;20208;-74
2024/01/01 05:32:37;;;;;;;6.05;1.30;;;11.70;66.90;13.20;99628.00;;;;5027135;28;20246;-75
2024/01/01 05:35:06;;;;;;;5.95;1.75;;;11.70;66.90;13.20;99612.00;;;;5033657;28;20802;-74
2024/01/01 05:37:33;;;;;;;4.07;1.00;;;11.70;67.00;13.20;99618.00;;;;5033497;28;20303;-75
2024/01/01 05:40:00;;;;;;;5.70;1.25;;;11.70;67.00;13.30;99630.00;;;;5034037;28;20202;-75
2024/01/01 05:42:28;;;;;;;4.05;1.13;;;11.70;67.00;13.20;99631.00;;;;5033653;28;20223;-75
2024/01/01 05:44:55;;;;;;;6.72;1.55;;;11.70;67.10;13.20;99636.00;;;;5033578;28;20192;-75
2024/01/01 05:47:22;;;;;;;4.40;1.00;;;11.70;67.10;13.20;99646.00;;;;5034728;28;20201;-75
2024/01/01 05:49:50;;;;;;;3.63;1.55;;;11.60;67.00;13.20;99634.00;;;;5033534;28;20200;-75
2024/01/01 05:52:17;;;;;;;2.28;1.15;;;11.70;67.10;13.20;99634.00;;;;5033686;28;20208;-75
2024/01/01 05:54:45;;;;;;;2.60;0.90;;;11.70;67.20;13.20;99638.00;;;;5033742;28;20192;-74
2024/01/01 05:57:12;;;;;;;3.60;1.20;;;11.70;67.20;13.20;99638.00;;;;5033350;28;20220;-75
2024/01/01 05:59:39;;;;;;;6.57;1.80;;;11.60;67.00;13.20;99645.00;;;;5033412;28;20208;-75
2024/01/01 06:02:07;;;;;;;4.45;1.13;;;11.60;67.10;13.20;99645.00;;;;5033834;28;20196;-75
2024/01/01 06:04:34;;;;;;;5.38;1.08;;;11.60;67.20;13.20;99649.00;;;;5047985;28;20223;-75
2024/01/01 06:07:03;;;;;;;6.25;1.08;;;11.60;67.80;13.20;99658.00;;;;5033318;28;20188;-74
2024/01/01 06:09:30;;;;;;;4.38;1.40;;;11.60;67.10;13.20;99674.00;;;;5033143;28;20662;-74
2024/01/01 06:11:57;;;;;;;3.00;0.93;;;11.60;67.10;13.10;99672.00;;;;5033301;28;20211;-73
2024/01/01 06:14:24;;;;;;;5.60;1.15;;;11.60;67.30;13.20;99669.00;;;;5032804;28;20771;-74
2024/01/01 06:16:51;;;;;;;5.85;1.20;;;11.60;67.30;13.20;99662.00;;;;5033788;28;20216;-73
2024/01/01 06:19:18;;;;;;;5.68;1.33;;;11.60;67.40;13.20;99670.00;;;;5033821;28;20211;-74
2024/01/01 06:21:45;;;;;;;6.75;1.10;;;11.60;67.40;13.20;99680.00;;;;5047693;28;20189;-74
2024/01/01 06:24:14;;;;;;;4.70;1.30;;;11.60;67.40;13.20;99681.00;;;;5032974;28;20192;-73
2024/01/01 06:26:41;;;;;;;3.97;1.33;;;11.60;67.40;13.20;99691.00;;;;5033352;28;20220;-73
2024/01/01 06:29:08;;;;;;;4.22;1.33;;;11.60;67.40;13.20;99701.00;;;;5032422;28;20630;-73
2024/01/01 06:31:35;;;;;;;4.03;1.08;;;11.60;67.40;13.20;99711.00;;;;5033231;28;20197;-74
2024/01/01 06:34:02;;;;;;;5.60;1.67;;;11.60;67.30;13.20;99704.00;;;;5033011;28;20703;-74
2024/01/01 06:36:29;;;;;;;5.18;1.58;;;11.60;67.40;13.20;99704.00;;;;5031675;28;20227;-74
2024/01/01 06:38:56;;;;;;;5.50;1.95;;;11.60;67.50;13.20;99709.00;;;;5032680;28;20283;-75
2024/01/01 06:41:25;;;;;;;5.32;1.77;;;11.60;67.50;13.20;99720.00;;;;5032020;28;20250;-75
2024/01/01 06:43:52;;;;;;;6.00;1.58;;;11.60;67.50;13.20;99714.00;;;;5033036;28;20201;-75
2024/01/01 06:46:19;;;;;;;7.93;1.30;;;11.60;67.50;13.20;99722.00;;;;5032091;28;20197;-75
2024/01/01 06:48:46;;;;;;;5.20;1.67;;;11.60;67.50;13.20;99725.00;;;;5032902;28;20188;-75
2024/01/01 06:51:14;;;;;;;2.75;1.00;;;11.60;67.60;13.20;99720.00;;;;5027260;28;20205;-75
2024/01/01 06:53:41;;;;;;;5.88;1.08;;;11.60;67.60;13.30;99737.00;;;;5036663;28;20196;-75
2024/01/01 06:56:08;;;;;;;5.32;1.00;;;11.60;67.50;13.30;99740.00;;;;5044017;28;20195;-75
2024/01/01 06:58:36;;;;;;;4.30;1.50;;;11.60;67.50;13.20;99739.00;;;;5032527;28;20224;-74
2024/01/01 07:01:04;;;;;;;3.45;1.15;;;11.70;67.60;13.20;99749.00;;;;5032234;28;20196;-75
2024/01/01 07:03:31;;;;;;;4.10;1.58;;;11.70;67.60;13.30;99748.00;;;;5031663;28;20196;-76
2024/01/01 07:05:58;;;;;;;3.75;1.70;;;11.60;67.60;13.30;99745.00;;;;5032326;28;20199;-74
2024/01/01 07:08:25;;;;;;;3.28;1.20;;;11.60;67.60;13.20;99752.00;;;;5031228;28;20200;-75
2024/01/01 07:10:51;;;;;;;5.00;1.15;;;11.70;67.70;13.20;99756.00;;;;5032833;28;20689;-75
2024/01/01 07:13:18;;;;;;;7.20;2.22;;;11.60;67.60;13.20;99763.00;;;;5032430;28;20215;-75
2024/01/01 07:15:48;;;;;;;5.20;1.55;;;11.70;67.70;13.20;99763.00;;;;5030756;28;20761;-75
2024/01/01 07:18:16;;;;;;;4.45;1.52;;;11.70;67.80;13.20;99776.00;;;;5032598;28;20234;-75
2024/01/01 07:20:45;;;;;;;4.03;1.10;;;11.70;67.80;13.20;99775.00;;;;5032003;28;20650;-75
2024/01/01 07:23:12;;;;;;;3.55;1.55;;;11.60;67.70;13.20;99793.00;;;;5026865;28;20197;-74
2024/01/01 07:25:39;;;;;;;4.80;1.63;;;11.60;67.70;13.20;99785.00;;;;5024578;28;20211;-74
2024/01/01 07:28:07;;;;;;;3.72;1.88;;;11.60;67.70;13.20;99801.00;;;;5039808;28;20215;-75
2024/01/01 07:30:35;;;;;;;4.85;1.40;;;11.60;67.70;13.20;99811.00;;;;5038301;28;20275;-75
2024/01/01 07:33:04;;;;;;;10.45;1.85;;;11.70;67.80;13.20;99818.00;;;;5032371;28;20203;-76
2024/01/01 07:35:31;;;;;;;4.50;1.60;;;11.60;67.80;13.20;99820.00;;;;5015914;28;20220;-75
2024/01/01 07:37:58;;;;;;;7.53;1.60;;;11.60;68.50;13.20;99811.00;;;;5020053;28;20224;-73
2024/01/01 07:40:25;;;;;;;4.32;1.73;;;11.60;67.70;13.20;99805.00;;;;5031773;28;20198;-74
2024/01/01 07:42:52;;;;;;;5.70;1.83;;;11.70;67.90;13.20;99810.00;;;;5031981;28;20568;-74
2024/01/01 07:45:19;;;;;;;6.40;1.83;;;11.60;67.80;13.20;99824.00;;;;5031108;28;20204;-74
2024/01/01 07:47:46;;;;;;;6.55;1.45;;;11.60;67.90;13.20;99828.00;;;;5031722;28;20200;-75
2024/01/01 07:50:14;;;;;;;9.00;2.13;;;11.60;67.80;13.20;99835.00;;;;5031053;28;20685;-74
2024/01/01 07:52:42;;;;;;;6.15;1.50;;;11.60;67.80;13.20;99849.00;;;;5031518;28;20196;-75
2024/01/01 07:55:11;;;;;;;5.60;1.30;;;11.60;67.80;13.20;99848.00;;;;5031430;28;20188;-74
2024/01/01 07:57:38;;;;;;;6.68;1.50;;;11.60;67.90;13.20;99839.00;;;;5031822;28;20670;-76
2024/01/01 08:00:09;;;;;;;4.00;1.33;;;11.60;67.90;13.20;99858.00;;;;5031654;28;20207;-75
2024/01/01 08:02:37;;;;;;;9.50;1.58;;;11.60;67.90;13.20;99856.00;;;;5032142;28;20238;-75
2024/01/01 08:05:04;;;;;;;5.82;1.30;;;11.60;68.00;13.20;99856.00;;;;5031464;28;20192;-75
2024/01/01 08:07:33;;;;;;;4.82;1.27;;;11.60;68.10;13.20;99868.00;;;;5031076;28;20206;-75
2024/01/01 08:10:00;;;;;;;7.43;1.83;;;11.60;68.80;13.20;99870.00;;;;5031753;28;20211;-74
2024/01/01 08:12:27;;;;;;;7.07;1.73;;;11.60;68.10;13.20;99866.00;;;;5030543;28;20207;-75
2024/01/01 08:14:54;;;;;;;6.15;1.98;;;11.60;68.00;13.20;99878.00;;;;5031500;28;20223;-75
2024/01/01 08:17:21;;;;;;;4.18;1.08;;;11.60;68.10;13.20;99870.00;;;;5031383;28;20565;-75
2024/01/01 08:19:48;;;;;;;6.60;1.60;;;11.60;68.10;13.20;99880.00;;;;5043002;28;20656;-75
2024/01/01 08:22:15;;;;;;;5.40;1.20;;;11.60;68.20;13.20;99888.00;;;;5031979;28;20204;-74
2024/01/01 08:24:43;;;;;;;3.40;0.85;;;11.60;68.20;13.20;99881.00;;;;5031209;28;20192;-74
2024/01/01 08:27:10;;;;;;;4.25;1.10;;;11.60;68.70;13.20;99891.00;;;;5031700;28;20193;-75
2024/01/01 08:29:37;;;;;;;5.50;1.90;;;11.60;68.10;13.20;99884.00;;;;5035800;28;20299;-75
2024/01/01 08:32:05;;;;;;;5.80;1.50;;;11.60;68.10;13.20;99894.00;;;;5035500;28;20196;-75
2024/01/01 08:34:32;;;;;;;3.95;1.05;;;11.60;68.00;13.20;99894.00;;;;5033643;28;20188;-75
2024/01/01 08:37:01;;;;;;;2.80;0.75;;;11.60;68.10;13.20;99896.00;;;;5050207;28;20301;-74
2024/01/01 08:39:28;;;;;;;2.97;0.90;;;11.60;68.10;13.20;99896.00;;;;5035001;28;20236;-74
2024/01/01 08:41:56;;;;;;;3.85;1.15;;;11.60;68.10;13.20;99902.00;;;;5034680;28;20683;-74
2024/01/01 08:44:23;;;;;;;4.20;0.98;;;11.60;68.70;13.20;99905.00;;;;5034726;28;20200;-75
2024/01/01 08:46:50;;;;;;;6.43;1.75;;;11.60;68.10;13.20;99916.00;;;;5035449;28;20193;-76
2024/01/01 08:49:17;;;;;;;2.97;0.73;;;11.60;68.10;13.20;99920.00;;;;5034689;28;20192;-75
2024/01/01 08:51:44;;;;;;;5.78;0.93;;;11.60;68.00;13.20;99923.00;;;;5035296;28;20192;-75
2024/01/01 08:54:14;;;;;;;2.30;1.00;;;11.60;68.00;13.20;99920.00;;;;5035239;28;20204;-75
2024/01/01 08:56:43;;;;;;;3.50;1.05;;;11.60;67.90;13.20;99921.00;;;;5034489;28;20196;-75
2024/01/01 08:59:12;;;;;;;2.58;1.30;;;11.60;68.00;13.20;99925.00;;;;5034341;28;20228;-75
2024/01/01 09:01:44;;;;;;;3.47;0.80;;;11.60;68.10;13.20;99930.00;;;;5034690;28;20283;-75
2024/01/01 09:04:11;;;;;;;5.43;1.10;;;11.60;68.00;13.20;99941.00;;;;5034564;28;20197;-75
2024/01/01 09:06:38;;;;;;;2.88;0.95;;;11.60;68.10;13.20;99933.00;;;;5034905;28;20588;-75
2024/01/01 09:09:05;;;;;;;3.88;0.95;;;11.60;68.00;13.20;99939.00;;;;5034038;28;20203;-76
2024/01/01 09:11:32;;;;;;;2.00;0.63;;;11.60;68.00;13.20;99942.00;;;;5049058;28;20204;-75
2024/01/01 09:14:00;;;;;;;2.40;0.68;;;11.60;67.90;13.20;99942.00;;;;5034239;28;20212;-75
2024/01/01 09:16:29;;;;;;;2.55;0.80;;;11.60;67.90;13.20;99958.00;;;;5034063;28;20197;-75
2024/01/01 09:18:57;;;;;;;2.20;0.60;;;11.60;67.80;13.20;99965.00;;;;5034630;28;20255;-74
2024/01/01 09:21:24;;;;;;;2.03;0.80;;;11.60;67.80;13.20;99967.00;;;;5033984;28;20223;-76
2024/01/01 09:23:51;;;;;;;2.75;0.60;;;11.60;67.80;13.20;99973.00;;;;5034206;28;20215;-76
2024/01/01 09:26:18;;;;;;;2.55;0.68;;;11.60;67.90;13.30;99980.00;;;;5034266;28;20204;-76
2024/01/01 09:28:45;;;;;;;3.40;1.00;;;11.60;67.90;13.30;99975.00;;;;5052371;28;20207;-74
2024/01/01 09:31:12;;;;;;;1.73;0.60;;;11.60;68.00;13.30;99973.00;;;;5046856;28;20535;-77
2024/01/01 09:33:41;;;;;;;3.45;0.80;;;11.70;68.10;13.30;99983.00;;;;5034023;28;20196;-75
2024/01/01 09:36:08;;;;;;;2.75;0.60;;;11.70;68.00;13.30;99986.00;;;;5033702;28;20274;-74
2024/01/01 09:38:35;;;;;;;3.13;0.80;;;11.60;67.90;13.30;99997.00;;;;5033920;28;20234;-74
2024/01/01 09:41:02;;;;;;;2.83;0.70;;;11.70;68.00;13.30;100009.00;;;;5033479;28;20196;-75
2024/01/01 09:43:29;;;;;;;1.73;0.60;;;11.70;67.90;13.30;100005.00;;;;5034391;28;20204;-75
2024/01/01 09:45:57;;;;;;;4.05;0.70;;;11.70;67.90;13.20;100009.00;;;;5033227;28;20184;-75
2024/01/01 09:48:24;;;;;;;2.63;0.60;;;11.70;68.00;13.30;100029.00;;;;5033920;28;20292;-75
2024/01/01 09:50:53;;;;;;;1.90;0.55;;;11.70;68.00;13.30;100029.00;;;;5033786;28;20193;-74
2024/01/01 09:53:20;;;;;;;3.30;1.10;;;11.70;68.10;13.30;100015.00;;;;5033852;28;20200;-75
2024/01/01 09:55:52;;;;;;;2.60;0.47;;;11.70;68.10;13.30;100013.00;;;;5033215;28;20203;-74
2024/01/01 09:58:19;;;;;;;2.85;0.93;;;11.70;68.10;13.30;100019.00;;;;5028362;28;20224;-74
2024/01/01 10:00:48;;;;;;;4.55;0.90;;;11.70;68.10;13.30;100030.00;;;;5027660;28;20195;-75
2024/01/01 10:03:16;;;;;;;3.50;1.17;;;11.70;68.10;13.40;100033.00;;;;5040188;28;20220;-75
2024/01/01 10:05:44;;;;;;;3.72;1.13;;;11.70;68.10;13.40;100033.00;;;;5033198;28;20287;-74
2024/01/01 10:08:14;;;;;;;1.58;0.75;;;11.70;68.10;13.40;100043.00;;;;5032883;28;20228;-74
2024/01/01 10:10:43;;;;;;;3.72;1.23;;;11.70;68.30;13.40;100046.00;;;;5033066;28;20200;-74
2024/01/01 10:13:12;;;;;;;2.33;0.82;;;11.70;68.40;13.40;100046.00;;;;5033429;28;20261;-75
2024/01/01 10:15:40;;;;;;;2.63;0.60;;;11.80;68.40;13.50;100058.00;;;;5032708;28;20709;-74
2024/01/01 10:18:12;;;;;;;3.58;0.93;;;11.80;68.40;13.50;100063.00;;;;5040988;28;20223;-74
2024/01/01 10:20:42;;;;;;;3.53;0.63;;;11.80;68.40;13.50;100058.00;;;;5040764;28;20200;-74
2024/01/01 10:23:29;;;;;;;3.30;0.80;;;11.80;68.30;13.40;100056.00;;;;5033224;28;20236;-74
2024/01/01 10:26:09;;;;;;;1.77;0.77;;;11.80;68.30;13.40;100062.00;;;;5019137;28;20626;-74
2024/01/01 10:28:36;;;;;;;2.33;0.82;;;11.80;68.20;13.50;100066.00;;;;5013297;28;20667;-74
2024/01/01 10:31:05;;;;;;;3.75;0.95;;;11.80;68.20;13.50;100057.00;;;;5030441;28;20669;-74
2024/01/01 10:33:34;;;;;;;2.58;0.70;;;11.90;68.20;13.50;100058.00;;;;5032508;28;20193;-74
2024/01/01 10:36:03;;;;;;;5.38;0.70;;;11.80;68.20;13.60;100058.00;;;;5032608;28;20220;-74
2024/01/01 10:38:34;;;;;;;1.77;0.80;;;11.90;68.30;13.50;100054.00;;;;5032622;28;20258;-74
2024/01/01 10:41:02;;;;;;;3.08;0.52;;;11.90;68.30;13.60;100052.00;;;;5032685;28;20202;-74
2024/01/01 10:43:29;;;;;;;1.65;0.60;;;11.90;68.30;13.70;100055.00;;;;5032664;28;20193;-75
2024/01/01 10:46:05;;;;;;;2.88;0.73;;;11.90;68.60;13.70;100053.00;;;;5016883;28;20235;-74
2024/01/01 10:48:33;;;;;;;2.83;0.60;;;12.00;68.70;13.80;100059.00;;;;5032374;28;20208;-76
2024/01/01 10:51:28;;;;;;;1.98;0.70;;;12.00;68.70;13.70;100065.00;;;;5031460;28;20203;-74
2024/01/01 10:54:26;;;;;;;2.20;0.60;;;12.10;68.90;13.70;100055.00;;;;5032693;28;20204;-74